createdAt,value
2016-04-06T00:00:46.913Z,12.25
2016-04-06T00:01:46.838Z,12.15
2016-04-06T00:02:46.794Z,12.25
2016-04-06T00:03:46.812Z,12.03
2016-04-06T00:04:46.705Z,12.18
2016-04-06T00:05:46.645Z,12.18
2016-04-06T00:06:46.601Z,12.06
2016-04-06T00:07:46.542Z,12.28
2016-04-06T00:08:46.497Z,12.1
2016-04-06T00:09:46.453Z,12.24
2016-04-06T00:10:46.392Z,12.13
2016-04-06T00:11:46.317Z,12
2016-04-06T00:12:46.289Z,11.91
2016-04-06T00:13:46.228Z,11.7
2016-04-06T00:14:46.185Z,11.84
2016-04-06T00:15:46.125Z,11.81
2016-04-06T00:16:46.080Z,11.66
2016-04-06T00:17:45.864Z,11.73
2016-04-06T00:18:46.008Z,11.55
2016-04-06T00:19:45.917Z,11.75
2016-04-06T00:20:45.888Z,11.7
2016-04-06T00:21:45.844Z,11.51
2016-04-06T00:22:45.769Z,11.59
2016-04-06T00:23:45.725Z,11.54
2016-04-06T00:24:45.665Z,11.73
2016-04-06T00:25:45.605Z,11.7
2016-04-06T00:26:45.576Z,11.63
2016-04-06T00:27:45.532Z,11.55
2016-04-06T00:28:45.504Z,11.55
2016-04-06T00:29:45.444Z,11.65
2016-04-06T00:30:45.385Z,11.68
2016-04-06T00:31:45.310Z,11.7
2016-04-06T00:32:45.265Z,11.6
2016-04-06T00:33:45.221Z,11.5
2016-04-06T00:34:45.192Z,11.41
2016-04-06T00:35:45.101Z,11.45
2016-04-06T00:36:45.087Z,11.37
2016-04-06T00:37:45.028Z,11.43
2016-04-06T00:38:44.937Z,11.41
2016-04-06T00:39:44.909Z,11.37
2016-04-06T00:40:44.849Z,11.29
2016-04-06T00:41:44.804Z,11.32
2016-04-06T00:42:44.745Z,11.3
2016-04-06T00:43:44.716Z,11.35
2016-04-06T00:44:44.656Z,11.48
2016-04-06T00:45:44.612Z,11.37
2016-04-06T00:46:44.567Z,11.45
2016-04-06T00:47:44.509Z,11.32
2016-04-06T00:48:44.448Z,11.4
2016-04-06T00:49:44.405Z,11.48
2016-04-06T00:50:44.344Z,11.4
2016-04-06T00:51:44.285Z,11.19
2016-04-06T00:52:44.241Z,11.32
2016-04-06T00:53:44.211Z,11.32
2016-04-06T00:54:44.136Z,11.4
2016-04-06T00:55:44.107Z,11.37
2016-04-06T00:56:44.049Z,11.32
2016-04-06T00:57:43.988Z,11.4
2016-04-06T00:58:43.929Z,11.3
2016-04-06T00:59:43.885Z,11.18
2016-04-06T01:00:43.855Z,11.02
2016-04-06T01:01:43.780Z,10.97
2016-04-06T01:02:43.736Z,10.92
2016-04-06T01:03:43.707Z,11.04
2016-04-06T01:04:43.616Z,11.26
2016-04-06T01:05:43.587Z,11.17
2016-04-06T01:06:43.528Z,11.11
2016-04-06T01:07:43.484Z,11.18
2016-04-06T01:08:43.424Z,11.23
2016-04-06T01:09:43.380Z,11.15
2016-04-06T01:10:43.320Z,11.08
2016-04-06T01:11:43.260Z,11.22
2016-04-06T01:12:43.231Z,11.17
2016-04-06T01:13:43.172Z,11.11
2016-04-06T01:14:43.128Z,11.07
2016-04-06T01:15:43.100Z,11.18
2016-04-06T01:16:43.024Z,11.23
2016-04-06T01:17:42.964Z,11.32
2016-04-06T01:18:42.936Z,11.22
2016-04-06T01:19:42.703Z,11.23
2016-04-06T01:20:42.831Z,11.15
2016-04-06T01:21:42.772Z,11.18
2016-04-06T01:22:42.727Z,11.33
2016-04-06T01:23:42.652Z,11.32
2016-04-06T01:24:42.607Z,11.18
2016-04-06T01:25:42.564Z,11.22
2016-04-06T01:26:42.519Z,11.26
2016-04-06T01:27:42.460Z,11.26
2016-04-06T01:28:42.416Z,11.29
2016-04-06T01:29:42.355Z,11.25
2016-04-06T01:30:42.296Z,11.3
2016-04-06T01:31:42.235Z,11.19
2016-04-06T01:32:42.207Z,11.23
2016-04-06T01:33:42.131Z,11.12
2016-04-06T01:34:42.087Z,11.11
2016-04-06T01:35:42.043Z,11.02
2016-04-06T01:36:41.999Z,10.99
2016-04-06T01:37:41.971Z,11.15
2016-04-06T01:38:41.912Z,11.18
2016-04-06T01:39:41.835Z,11.05
2016-04-06T01:40:41.792Z,11.25
2016-04-06T01:41:41.731Z,11
2016-04-06T01:42:41.703Z,11
2016-04-06T01:43:41.643Z,10.99
2016-04-06T01:44:41.584Z,11.04
2016-04-06T01:45:41.540Z,11.07
2016-04-06T01:46:41.495Z,11.04
2016-04-06T01:47:41.451Z,11.02
2016-04-06T01:48:41.406Z,11.23
2016-04-06T01:49:41.331Z,11.27
2016-04-06T01:50:41.271Z,11.07
2016-04-06T01:51:41.227Z,11.18
2016-04-06T01:52:41.183Z,11.1
2016-04-06T01:53:41.122Z,10.96
2016-04-06T01:54:41.080Z,10.92
2016-04-06T01:55:41.035Z,10.9
2016-04-06T01:56:40.991Z,11.1
2016-04-06T01:57:40.947Z,11.11
2016-04-06T01:58:40.886Z,11.12
2016-04-06T01:59:40.827Z,11
2016-04-06T02:00:40.782Z,11.19
2016-04-06T02:01:40.754Z,11.04
2016-04-06T02:02:40.662Z,11.04
2016-04-06T02:03:40.618Z,10.86
2016-04-06T02:04:40.590Z,10.99
2016-04-06T02:05:40.515Z,10.86
2016-04-06T02:06:40.471Z,10.86
2016-04-06T02:07:40.270Z,10.76
2016-04-06T02:08:40.781Z,10.71
2016-04-06T02:09:40.330Z,10.79
2016-04-06T02:10:40.271Z,10.69
2016-04-06T02:11:40.211Z,10.72
2016-04-06T02:12:40.167Z,10.75
2016-04-06T02:13:40.107Z,10.61
2016-04-06T02:14:40.063Z,10.63
2016-04-06T02:15:40.019Z,10.68
2016-04-06T02:16:39.944Z,10.84
2016-04-06T02:17:39.899Z,10.82
2016-04-06T02:18:39.871Z,10.75
2016-04-06T02:19:39.811Z,10.78
2016-04-06T02:20:39.735Z,10.71
2016-04-06T02:21:39.692Z,10.68
2016-04-06T02:22:39.648Z,10.63
2016-04-06T02:23:39.604Z,10.6
2016-04-06T02:24:39.543Z,10.63
2016-04-06T02:25:39.484Z,10.61
2016-04-06T02:26:39.439Z,10.61
2016-04-06T02:27:39.395Z,10.64
2016-04-06T02:28:39.350Z,10.67
2016-04-06T02:29:39.322Z,10.56
2016-04-06T02:30:39.231Z,10.46
2016-04-06T02:31:39.187Z,10.67
2016-04-06T02:32:39.128Z,10.78
2016-04-06T02:33:39.084Z,10.79
2016-04-06T02:34:39.055Z,10.84
2016-04-06T02:35:39.183Z,10.82
2016-04-06T02:36:38.935Z,10.87
2016-04-06T02:37:38.891Z,10.97
2016-04-06T02:38:38.831Z,10.97
2016-04-06T02:39:38.771Z,10.78
2016-04-06T02:40:38.727Z,10.79
2016-04-06T02:41:38.683Z,10.89
2016-04-06T02:42:38.623Z,10.79
2016-04-06T02:43:38.563Z,10.86
2016-04-06T02:44:38.519Z,10.86
2016-04-06T02:45:38.491Z,10.75
2016-04-06T02:46:38.430Z,10.64
2016-04-06T02:47:38.355Z,10.67
2016-04-06T02:48:38.310Z,10.64
2016-04-06T02:49:38.267Z,10.75
2016-04-06T02:50:38.207Z,10.9
2016-04-06T02:51:38.148Z,10.79
2016-04-06T02:52:38.119Z,10.9
2016-04-06T02:53:38.059Z,10.82
2016-04-06T02:54:37.999Z,10.79
2016-04-06T02:55:37.954Z,10.79
2016-04-06T02:56:37.895Z,10.93
2016-04-06T02:57:37.835Z,10.76
2016-04-06T02:58:37.822Z,10.81
2016-04-06T02:59:37.747Z,10.84
2016-04-06T03:00:37.687Z,10.82
2016-04-06T03:01:37.659Z,10.82
2016-04-06T03:02:37.615Z,10.72
2016-04-06T03:03:37.539Z,10.75
2016-04-06T03:04:37.495Z,10.72
2016-04-06T03:05:37.451Z,10.71
2016-04-06T03:06:37.406Z,10.81
2016-04-06T03:07:37.347Z,10.81
2016-04-06T03:08:37.286Z,10.86
2016-04-06T03:09:37.289Z,10.84
2016-04-06T03:10:37.182Z,10.81
2016-04-06T03:11:37.138Z,10.75
2016-04-06T03:12:37.313Z,10.79
2016-04-06T03:13:37.050Z,10.92
2016-04-06T03:14:36.975Z,10.93
2016-04-06T03:15:36.930Z,11
2016-04-06T03:16:36.871Z,10.82
2016-04-06T03:17:36.842Z,10.68
2016-04-06T03:18:36.782Z,10.64
2016-04-06T03:19:36.723Z,10.67
2016-04-06T03:20:36.679Z,10.75
2016-04-06T03:21:36.635Z,10.81
2016-04-06T03:22:36.590Z,10.76
2016-04-06T03:23:36.530Z,10.79
2016-04-06T03:24:36.657Z,10.9
2016-04-06T03:25:36.426Z,10.82
2016-04-06T03:26:36.366Z,10.89
2016-04-06T03:27:36.322Z,11.04
2016-04-06T03:28:36.278Z,10.97
2016-04-06T03:29:36.217Z,10.92
2016-04-06T03:30:36.174Z,10.96
2016-04-06T03:31:36.114Z,10.87
2016-04-06T03:32:36.054Z,10.94
2016-04-06T03:33:36.026Z,10.89
2016-04-06T03:34:35.967Z,11
2016-04-06T03:35:35.922Z,10.9
2016-04-06T03:36:35.862Z,11.02
2016-04-06T03:37:35.817Z,10.94
2016-04-06T03:38:35.774Z,10.97
2016-04-06T03:39:35.713Z,10.82
2016-04-06T03:40:35.654Z,10.75
2016-04-06T03:41:35.610Z,10.75
2016-04-06T03:42:35.581Z,10.81
2016-04-06T03:43:35.506Z,10.67
2016-04-06T03:44:35.446Z,10.42
2016-04-06T03:45:35.402Z,10.53
2016-04-06T03:46:35.341Z,10.46
2016-04-06T03:47:35.282Z,10.71
2016-04-06T03:48:35.238Z,10.74
2016-04-06T03:49:35.210Z,10.69
2016-04-06T03:50:35.134Z,10.71
2016-04-06T03:51:35.090Z,10.78
2016-04-06T03:52:35.046Z,10.74
2016-04-06T03:53:34.985Z,10.82
2016-04-06T03:54:34.957Z,10.78
2016-04-06T03:55:34.882Z,10.78
2016-04-06T03:56:34.822Z,10.84
2016-04-06T03:57:34.778Z,10.82
2016-04-06T03:58:34.733Z,10.9
2016-04-06T03:59:34.690Z,10.68
2016-04-06T04:00:34.614Z,10.72
2016-04-06T04:01:34.570Z,10.74
2016-04-06T04:02:34.510Z,10.72
2016-04-06T04:03:34.481Z,10.71
2016-04-06T04:04:34.437Z,10.51
2016-04-06T04:05:34.361Z,10.68
2016-04-06T04:06:34.317Z,10.75
2016-04-06T04:07:34.273Z,10.74
2016-04-06T04:08:34.214Z,10.76
2016-04-06T04:09:34.170Z,10.59
2016-04-06T04:10:34.110Z,10.59
2016-04-06T04:11:34.050Z,10.61
2016-04-06T04:12:34.021Z,10.75
2016-04-06T04:13:33.961Z,10.74
2016-04-06T04:14:33.902Z,10.78
2016-04-06T04:15:33.842Z,10.81
2016-04-06T04:16:33.797Z,10.87
2016-04-06T04:17:33.754Z,10.79
2016-04-06T04:18:33.694Z,10.86
2016-04-06T04:19:33.665Z,10.84
2016-04-06T04:20:33.605Z,10.84
2016-04-06T04:21:33.546Z,10.84
2016-04-06T04:22:33.485Z,10.87
2016-04-06T04:23:33.441Z,10.84
2016-04-06T04:24:33.382Z,10.71
2016-04-06T04:25:33.337Z,10.69
2016-04-06T04:26:33.309Z,10.78
2016-04-06T04:27:33.234Z,10.87
2016-04-06T04:28:33.189Z,10.78
2016-04-06T04:29:33.146Z,10.84
2016-04-06T04:30:33.070Z,10.72
2016-04-06T04:31:33.042Z,10.78
2016-04-06T04:32:32.981Z,10.76
2016-04-06T04:33:32.937Z,10.78
2016-04-06T04:34:32.908Z,10.84
2016-04-06T04:35:32.817Z,10.68
2016-04-06T04:36:32.773Z,10.63
2016-04-06T04:37:32.728Z,10.71
2016-04-06T04:38:32.669Z,10.78
2016-04-06T04:39:32.625Z,10.74
2016-04-06T04:40:32.566Z,10.71
2016-04-06T04:41:32.505Z,10.78
2016-04-06T04:42:32.477Z,10.74
2016-04-06T04:43:32.433Z,10.74
2016-04-06T04:44:32.357Z,10.67
2016-04-06T04:45:32.297Z,10.63
2016-04-06T04:46:32.269Z,10.71
2016-04-06T04:47:32.240Z,10.63
2016-04-06T04:48:32.150Z,10.68
2016-04-06T04:49:32.121Z,10.68
2016-04-06T04:50:32.060Z,10.72
2016-04-06T04:51:32.001Z,10.61
2016-04-06T04:52:31.957Z,10.69
2016-04-06T04:53:31.912Z,10.67
2016-04-06T04:54:31.854Z,10.56
2016-04-06T04:55:31.840Z,10.63
2016-04-06T04:56:31.734Z,10.61
2016-04-06T04:57:31.690Z,10.67
2016-04-06T04:58:31.645Z,10.56
2016-04-06T04:59:31.601Z,10.42
2016-04-06T05:00:31.541Z,10.48
2016-04-06T05:01:31.497Z,10.53
2016-04-06T05:02:31.437Z,10.51
2016-04-06T05:03:31.377Z,10.49
2016-04-06T05:04:31.333Z,10.61
2016-04-06T05:05:31.288Z,10.59
2016-04-06T05:06:31.229Z,10.57
2016-04-06T05:07:31.170Z,10.54
2016-04-06T05:08:31.500Z,10.49
2016-04-06T05:09:31.081Z,10.37
2016-04-06T05:10:31.022Z,10.4
2016-04-06T05:11:30.992Z,10.48
2016-04-06T05:12:30.917Z,10.6
2016-04-06T05:13:30.873Z,10.64
2016-04-06T05:14:30.828Z,10.57
2016-04-06T05:15:30.613Z,10.63
2016-04-06T05:16:30.708Z,10.72
2016-04-06T05:17:30.649Z,10.68
2016-04-06T05:18:30.605Z,10.72
2016-04-06T05:19:30.577Z,10.71
2016-04-06T05:20:30.501Z,10.74
2016-04-06T05:21:30.457Z,10.67
2016-04-06T05:22:30.397Z,10.67
2016-04-06T05:23:30.352Z,10.69
2016-04-06T05:24:30.293Z,10.68
2016-04-06T05:25:30.249Z,10.71
2016-04-06T05:26:30.189Z,10.68
2016-04-06T05:27:30.160Z,10.74
2016-04-06T05:28:30.112Z,10.82
2016-04-06T05:29:30.051Z,10.79
2016-04-06T05:30:30.007Z,10.76
2016-04-06T05:31:29.932Z,10.79
2016-04-06T05:32:29.919Z,10.69
2016-04-06T05:33:29.843Z,10.69
2016-04-06T05:34:29.784Z,10.76
2016-04-06T05:35:29.740Z,10.71
2016-04-06T05:36:29.696Z,10.76
2016-04-06T05:37:29.636Z,10.74
2016-04-06T05:38:29.575Z,10.74
2016-04-06T05:39:29.532Z,10.75
2016-04-06T05:40:30.003Z,10.79
2016-04-06T05:41:29.428Z,10.67
2016-04-06T05:42:29.384Z,10.68
2016-04-06T05:43:29.355Z,10.71
2016-04-06T05:44:29.264Z,10.68
2016-04-06T05:45:29.220Z,10.74
2016-04-06T05:46:29.175Z,10.74
2016-04-06T05:47:29.131Z,10.71
2016-04-06T05:48:29.086Z,10.75
2016-04-06T05:49:29.011Z,10.75
2016-04-06T05:50:28.967Z,10.68
2016-04-06T05:51:28.923Z,10.6
2016-04-06T05:52:28.894Z,10.72
2016-04-06T05:53:28.085Z,10.81
2016-04-06T05:54:28.760Z,10.76
2016-04-06T05:55:28.715Z,10.82
2016-04-06T05:56:28.655Z,10.81
2016-04-06T05:57:28.610Z,10.79
2016-04-06T05:58:28.583Z,10.9
2016-04-06T05:59:28.524Z,10.97
2016-04-06T06:00:28.447Z,10.89
2016-04-06T06:01:28.404Z,10.89
2016-04-06T06:02:28.359Z,10.86
2016-04-06T06:03:28.310Z,10.86
2016-04-06T06:04:28.296Z,10.82
2016-04-06T06:05:28.313Z,10.81
2016-04-06T06:06:28.298Z,10.92
2016-04-06T06:07:28.285Z,10.72
2016-04-06T06:08:28.293Z,10.68
2016-04-06T06:09:28.234Z,10.74
2016-04-06T06:10:28.191Z,10.79
2016-04-06T06:11:28.177Z,10.74
2016-04-06T06:12:28.135Z,10.74
2016-04-06T06:13:28.151Z,10.64
2016-04-06T06:14:28.034Z,10.74
2016-04-06T06:15:27.996Z,10.82
2016-04-06T06:16:27.942Z,10.72
2016-04-06T06:17:27.918Z,10.68
2016-04-06T06:18:27.848Z,10.87
2016-04-06T06:19:27.821Z,10.78
2016-04-06T06:20:27.763Z,10.69
2016-04-06T06:21:27.706Z,10.69
2016-04-06T06:22:27.742Z,10.59
2016-04-06T06:23:27.607Z,10.76
2016-04-06T06:24:27.579Z,10.42
2016-04-06T06:25:27.505Z,10.54
2016-04-06T06:26:27.446Z,10.64
2016-04-06T06:27:27.386Z,10.6
2016-04-06T06:28:27.359Z,10.59
2016-04-06T06:29:27.315Z,10.69
2016-04-06T06:30:27.256Z,10.72
2016-04-06T06:31:27.196Z,10.69
2016-04-06T06:32:27.152Z,10.97
2016-04-06T06:33:27.093Z,10.92
2016-04-06T06:34:27.048Z,10.86
2016-04-06T06:35:26.988Z,10.87
2016-04-06T06:36:26.944Z,10.94
2016-04-06T06:37:26.901Z,10.93
2016-04-06T06:38:26.887Z,10.86
2016-04-06T06:39:26.796Z,10.99
2016-04-06T06:40:26.862Z,10.97
2016-04-06T06:41:26.693Z,10.93
2016-04-06T06:42:26.632Z,10.9
2016-04-06T06:43:26.588Z,10.97
2016-04-06T06:44:26.545Z,10.99
2016-04-06T06:45:26.485Z,10.94
2016-04-06T06:46:26.456Z,10.89
2016-04-06T06:47:26.364Z,10.93
2016-04-06T06:48:26.336Z,10.99
2016-04-06T06:49:26.276Z,10.94
2016-04-06T06:50:26.217Z,11.02
2016-04-06T06:51:26.188Z,11
2016-04-06T06:52:25.378Z,10.99
2016-04-06T06:53:26.084Z,11
2016-04-06T06:54:26.008Z,10.97
2016-04-06T06:55:25.964Z,11.11
2016-04-06T06:56:25.905Z,10.99
2016-04-06T06:57:25.876Z,10.96
2016-04-06T06:58:25.832Z,11.14
2016-04-06T06:59:25.740Z,11.12
2016-04-06T07:00:25.696Z,11.11
2016-04-06T07:01:25.653Z,11.11
2016-04-06T07:02:25.593Z,11.11
2016-04-06T07:03:25.564Z,11.11
2016-04-06T07:04:25.488Z,10.97
2016-04-06T07:05:25.444Z,10.99
2016-04-06T07:06:25.385Z,11.05
2016-04-06T07:07:25.340Z,11.22
2016-04-06T07:08:25.280Z,11.12
2016-04-06T07:09:25.237Z,10.99
2016-04-06T07:10:25.193Z,11.08
2016-04-06T07:11:25.132Z,11.11
2016-04-06T07:12:25.088Z,11.04
2016-04-06T07:13:25.043Z,11.05
2016-04-06T07:14:24.984Z,11.19
2016-04-06T07:15:24.955Z,11.08
2016-04-06T07:16:24.880Z,11.11
2016-04-06T07:17:24.820Z,11.12
2016-04-06T07:18:24.776Z,11.19
2016-04-06T07:19:24.716Z,11.05
2016-04-06T07:20:24.876Z,10.96
2016-04-06T07:21:24.612Z,10.86
2016-04-06T07:22:24.584Z,10.89
2016-04-06T07:23:24.509Z,10.86
2016-04-06T07:24:24.481Z,11.05
2016-04-06T07:25:24.405Z,10.96
2016-04-06T07:26:24.360Z,11.1
2016-04-06T07:27:24.316Z,11.14
2016-04-06T07:28:24.256Z,11.18
2016-04-06T07:29:24.211Z,11.12
2016-04-06T07:30:24.136Z,11.23
2016-04-06T07:31:24.124Z,11.08
2016-04-06T07:32:24.048Z,11.19
2016-04-06T07:33:23.989Z,11.25
2016-04-06T07:34:23.944Z,11.27
2016-04-06T07:35:23.807Z,11.26
2016-04-06T07:36:23.840Z,11.17
2016-04-06T07:37:23.780Z,11
2016-04-06T07:38:23.752Z,10.87
2016-04-06T07:39:23.693Z,11.04
2016-04-06T07:40:23.648Z,11.02
2016-04-06T07:41:23.588Z,11.11
2016-04-06T07:42:23.513Z,11.19
2016-04-06T07:43:23.468Z,10.96
2016-04-06T07:44:23.424Z,11.11
2016-04-06T07:45:23.377Z,11.25
2016-04-06T07:46:23.318Z,11.36
2016-04-06T07:47:23.258Z,11.36
2016-04-06T07:48:23.214Z,11.43
2016-04-06T07:49:23.154Z,11.19
2016-04-06T07:50:23.032Z,10.99
2016-04-06T07:51:23.081Z,11.3
2016-04-06T07:52:23.006Z,11.35
2016-04-06T07:53:22.945Z,11.36
2016-04-06T07:54:22.901Z,11.4
2016-04-06T07:55:22.842Z,11.26
2016-04-06T07:56:22.797Z,11.43
2016-04-06T07:57:22.738Z,11.47
2016-04-06T07:58:22.694Z,11.3
2016-04-06T07:59:22.650Z,11.41
2016-04-06T08:00:22.574Z,11.44
2016-04-06T08:01:22.530Z,11.35
2016-04-06T08:02:22.501Z,11.37
2016-04-06T08:03:22.426Z,11.43
2016-04-06T08:04:22.382Z,11.48
2016-04-06T08:05:22.415Z,11.55
2016-04-06T08:06:22.293Z,11.6
2016-04-06T08:07:22.218Z,11.68
2016-04-06T08:08:22.189Z,11.72
2016-04-06T08:09:22.146Z,11.7
2016-04-06T08:10:22.069Z,11.72
2016-04-06T08:11:22.072Z,11.75
2016-04-06T08:12:21.982Z,11.7
2016-04-06T08:13:21.921Z,11.87
2016-04-06T08:14:21.877Z,11.8
2016-04-06T08:15:21.818Z,11.78
2016-04-06T08:16:21.773Z,11.7
2016-04-06T08:17:21.698Z,11.68
2016-04-06T08:18:21.653Z,11.62
2016-04-06T08:19:21.625Z,11.73
2016-04-06T08:20:21.471Z,11.78
2016-04-06T08:21:21.489Z,11.66
2016-04-06T08:22:21.461Z,11.65
2016-04-06T08:23:21.401Z,11.72
2016-04-06T08:24:21.357Z,11.68
2016-04-06T08:25:21.329Z,11.66
2016-04-06T08:26:21.237Z,11.73
2016-04-06T08:27:21.178Z,11.68
2016-04-06T08:28:21.149Z,11.69
2016-04-06T08:29:21.090Z,11.87
2016-04-06T08:30:21.030Z,11.8
2016-04-06T08:31:20.970Z,11.91
2016-04-06T08:32:20.941Z,11.94
2016-04-06T08:33:20.881Z,12.02
2016-04-06T08:34:20.838Z,12.09
2016-04-06T08:35:20.794Z,12.07
2016-04-06T08:36:20.719Z,12.09
2016-04-06T08:37:20.674Z,12.25
2016-04-06T08:38:20.629Z,12.13
2016-04-06T08:39:20.616Z,12.24
2016-04-06T08:40:20.525Z,11.97
2016-04-06T08:41:20.482Z,12.04
2016-04-06T08:42:20.421Z,11.81
2016-04-06T08:43:20.393Z,11.88
2016-04-06T08:44:20.177Z,11.97
2016-04-06T08:45:20.274Z,12
2016-04-06T08:46:20.229Z,12.1
2016-04-06T08:47:20.169Z,12.03
2016-04-06T08:48:20.110Z,12.13
2016-04-06T08:49:20.065Z,12.06
2016-04-06T08:50:20.036Z,12.17
2016-04-06T08:51:19.962Z,12.28
2016-04-06T08:52:19.901Z,12.15
2016-04-06T08:53:19.873Z,12.09
2016-04-06T08:54:19.813Z,12.12
2016-04-06T08:55:19.753Z,12.17
2016-04-06T08:56:19.709Z,12.15
2016-04-06T08:57:19.650Z,12.07
2016-04-06T08:58:19.605Z,12.13
2016-04-06T08:59:19.561Z,12.21
2016-04-06T09:00:19.500Z,12.27
2016-04-06T09:01:19.442Z,12.27
2016-04-06T09:02:19.397Z,12.12
2016-04-06T09:03:19.337Z,12.07
2016-04-06T09:04:19.308Z,12.29
2016-04-06T09:05:19.249Z,12.36
2016-04-06T09:06:19.189Z,12.39
2016-04-06T09:07:19.145Z,12.27
2016-04-06T09:08:19.085Z,12.4
2016-04-06T09:09:19.041Z,12.32
2016-04-06T09:10:18.980Z,12.42
2016-04-06T09:11:18.937Z,12.35
2016-04-06T09:12:18.893Z,12.22
2016-04-06T09:13:18.848Z,12.43
2016-04-06T09:14:18.789Z,12.5
2016-04-06T09:15:18.729Z,12.36
2016-04-06T09:16:18.684Z,12.39
2016-04-06T09:17:18.624Z,12.29
2016-04-06T09:18:18.581Z,12.37
2016-04-06T09:19:18.537Z,12.5
2016-04-06T09:20:18.461Z,12.49
2016-04-06T09:21:18.449Z,12.54
2016-04-06T09:22:18.373Z,12.54
2016-04-06T09:23:18.312Z,12.45
2016-04-06T09:24:18.269Z,12.65
2016-04-06T09:25:18.225Z,12.39
2016-04-06T09:26:18.181Z,12.43
2016-04-06T09:27:18.120Z,12.61
2016-04-06T09:28:18.154Z,12.64
2016-04-06T09:29:18.017Z,12.55
2016-04-06T09:30:17.956Z,12.54
2016-04-06T09:31:17.912Z,12.58
2016-04-06T09:32:17.900Z,12.55
2016-04-06T09:33:17.825Z,12.61
2016-04-06T09:34:17.764Z,12.6
2016-04-06T09:35:17.798Z,12.61
2016-04-06T09:36:17.645Z,12.45
2016-04-06T09:37:17.616Z,12.61
2016-04-06T09:38:17.556Z,12.61
2016-04-06T09:39:17.513Z,12.53
2016-04-06T09:40:17.436Z,12.67
2016-04-06T09:41:17.408Z,12.6
2016-04-06T09:42:17.369Z,12.5
2016-04-06T09:43:17.324Z,12.54
2016-04-06T09:44:17.249Z,12.27
2016-04-06T09:45:17.198Z,12.43
2016-04-06T09:46:17.138Z,12.47
2016-04-06T09:47:17.157Z,12.54
2016-04-06T09:48:17.035Z,12.5
2016-04-06T09:49:17.099Z,12.55
2016-04-06T09:50:16.947Z,12.62
2016-04-06T09:51:16.886Z,12.7
2016-04-06T09:52:16.842Z,12.58
2016-04-06T09:53:16.798Z,12.65
2016-04-06T09:54:16.738Z,12.85
2016-04-06T09:55:16.694Z,12.73
2016-04-06T09:56:16.634Z,12.9
2016-04-06T09:57:16.605Z,12.86
2016-04-06T09:58:16.546Z,12.97
2016-04-06T09:59:16.470Z,13.03
2016-04-06T10:00:16.426Z,12.93
2016-04-06T10:01:16.365Z,12.73
2016-04-06T10:02:16.323Z,12.78
2016-04-06T10:03:16.278Z,12.82
2016-04-06T10:04:16.218Z,13.01
2016-04-06T10:05:16.159Z,13.05
2016-04-06T10:06:16.129Z,13.18
2016-04-06T10:07:16.054Z,13.15
2016-04-06T10:08:16.026Z,12.97
2016-04-06T10:09:15.950Z,12.93
2016-04-06T10:10:15.922Z,13
2016-04-06T10:11:15.862Z,12.85
2016-04-06T10:12:15.802Z,13
2016-04-06T10:13:15.773Z,13.03
2016-04-06T10:14:15.714Z,13.09
2016-04-06T10:15:15.669Z,13.08
2016-04-06T10:16:15.610Z,12.9
2016-04-06T10:17:15.550Z,12.98
2016-04-06T10:18:15.506Z,12.98
2016-04-06T10:19:15.461Z,13.05
2016-04-06T10:20:15.417Z,13.05
2016-04-06T10:21:15.358Z,13.04
2016-04-06T10:22:15.297Z,13.2
2016-04-06T10:23:15.269Z,13.27
2016-04-06T10:24:15.194Z,13.18
2016-04-06T10:25:15.149Z,13.2
2016-04-06T10:26:15.090Z,13.12
2016-04-06T10:27:15.077Z,13.03
2016-04-06T10:28:15.002Z,13.04
2016-04-06T10:29:14.941Z,13.04
2016-04-06T10:30:14.928Z,13.03
2016-04-06T10:31:14.854Z,12.9
2016-04-06T10:32:14.793Z,12.83
2016-04-06T10:33:14.749Z,12.82
2016-04-06T10:34:14.689Z,12.85
2016-04-06T10:35:14.646Z,12.97
2016-04-06T10:36:14.585Z,12.83
2016-04-06T10:37:14.525Z,12.94
2016-04-06T10:38:14.497Z,12.97
2016-04-06T10:39:14.437Z,13.23
2016-04-06T10:40:14.581Z,13.23
2016-04-06T10:41:14.333Z,13.37
2016-04-06T10:42:14.289Z,13.19
2016-04-06T10:43:14.229Z,13.16
2016-04-06T10:44:14.185Z,13.15
2016-04-06T10:45:14.141Z,13.28
2016-04-06T10:46:14.081Z,13.42
2016-04-06T10:47:14.022Z,13.5
2016-04-06T10:48:13.978Z,13.33
2016-04-06T10:49:13.917Z,13.41
2016-04-06T10:50:13.904Z,13.49
2016-04-06T10:51:13.844Z,13.42
2016-04-06T10:52:13.769Z,13.31
2016-04-06T10:53:13.710Z,13.27
2016-04-06T10:54:13.665Z,13.23
2016-04-06T10:55:13.480Z,13.22
2016-04-06T10:56:13.452Z,13.18
2016-04-06T10:57:13.485Z,13.28
2016-04-06T10:58:13.473Z,13.22
2016-04-06T10:59:13.413Z,13.41
2016-04-06T11:00:13.368Z,13.27
2016-04-06T11:01:13.324Z,13.49
2016-04-06T11:02:13.264Z,13.42
2016-04-06T11:03:13.252Z,13.46
2016-04-06T11:04:13.176Z,13.3
2016-04-06T11:05:13.116Z,13.5
2016-04-06T11:06:13.337Z,13.52
2016-04-06T11:07:12.998Z,13.71
2016-04-06T11:08:12.953Z,13.68
2016-04-06T11:09:12.908Z,13.89
2016-04-06T11:10:12.865Z,13.86
2016-04-06T11:11:12.836Z,13.89
2016-04-06T11:12:12.744Z,13.71
2016-04-06T11:13:12.717Z,13.99
2016-04-06T11:14:12.673Z,14.28
2016-04-06T11:15:11.862Z,14.32
2016-04-06T11:16:12.552Z,14.44
2016-04-06T11:17:12.508Z,14.84
2016-04-06T11:18:12.448Z,14.88
2016-04-06T11:19:12.419Z,15.14
2016-04-06T11:20:12.360Z,15.68
2016-04-06T11:21:12.269Z,15.52
2016-04-06T11:22:12.272Z,15.8
2016-04-06T11:23:12.196Z,15.84
2016-04-06T11:24:12.168Z,15.83
2016-04-06T11:25:12.092Z,16.1
2016-04-06T11:26:12.048Z,16.02
2016-04-06T11:27:11.988Z,16.39
2016-04-06T11:28:11.944Z,16.96
2016-04-06T11:29:11.915Z,17.3
2016-04-06T11:30:11.855Z,17.44
2016-04-06T11:31:11.811Z,16.64
2016-04-06T11:32:11.782Z,16.66
2016-04-06T11:33:11.738Z,16.75
2016-04-06T11:34:13.273Z,17.05
2016-04-06T11:35:11.619Z,16.84
2016-04-06T11:36:11.590Z,16.72
2016-04-06T11:37:11.499Z,16.51
2016-04-06T11:38:11.456Z,16.43
2016-04-06T11:39:11.411Z,16.28
2016-04-06T11:40:11.367Z,15.77
2016-04-06T11:41:11.322Z,15.51
2016-04-06T11:42:11.279Z,15.61
2016-04-06T11:43:11.203Z,15.64
2016-04-06T11:44:11.175Z,15.8
2016-04-06T11:45:11.114Z,15.65
2016-04-06T11:46:11.070Z,16
2016-04-06T11:47:11.011Z,16.41
2016-04-06T11:48:10.983Z,15.97
2016-04-06T11:49:10.922Z,16
2016-04-06T11:50:10.878Z,15.59
2016-04-06T11:51:10.787Z,15.68
2016-04-06T11:52:10.774Z,15.83
2016-04-06T11:53:10.714Z,15.94
2016-04-06T11:54:10.669Z,16.16
2016-04-06T11:55:10.610Z,16.24
2016-04-06T11:56:10.582Z,16.09
2016-04-06T11:57:10.538Z,16.31
2016-04-06T11:58:10.478Z,16.23
2016-04-06T11:59:10.402Z,16.16
2016-04-06T12:00:10.390Z,16.02
2016-04-06T12:01:10.329Z,16.23
2016-04-06T12:02:10.301Z,16.1
2016-04-06T12:03:10.210Z,15.92
2016-04-06T12:04:10.166Z,15.91
2016-04-06T12:05:10.106Z,15.77
2016-04-06T12:06:10.124Z,16.04
2016-04-06T12:07:10.033Z,16.46
2016-04-06T12:08:09.965Z,16.81
2016-04-06T12:09:09.920Z,17.23
2016-04-06T12:10:09.891Z,17.31
2016-04-06T12:11:09.832Z,17.33
2016-04-06T12:12:09.757Z,16.96
2016-04-06T12:13:09.728Z,17.02
2016-04-06T12:14:09.715Z,16.78
2016-04-06T12:15:09.640Z,16.76
2016-04-06T12:16:09.580Z,16.97
2016-04-06T12:17:09.553Z,16.29
2016-04-06T12:18:09.478Z,16.54
2016-04-06T12:19:09.434Z,16.09
2016-04-06T12:20:09.374Z,15.98
2016-04-06T12:21:09.392Z,16
2016-04-06T12:22:08.536Z,16.15
2016-04-06T12:23:09.241Z,16.09
2016-04-06T12:24:09.181Z,15.83
2016-04-06T12:25:08.981Z,15.91
2016-04-06T12:26:09.109Z,15.68
2016-04-06T12:27:09.033Z,15.65
2016-04-06T12:28:08.989Z,15.68
2016-04-06T12:29:08.944Z,15.7
2016-04-06T12:30:08.900Z,15.64
2016-04-06T12:31:08.856Z,15.28
2016-04-06T12:32:08.797Z,15.28
2016-04-06T12:33:08.752Z,15.55
2016-04-06T12:34:08.694Z,15.1
2016-04-06T12:35:08.649Z,14.77
2016-04-06T12:36:08.588Z,15
2016-04-06T12:37:08.560Z,15.03
2016-04-06T12:38:08.500Z,15.22
2016-04-06T12:39:08.440Z,15.04
2016-04-06T12:40:08.381Z,15.22
2016-04-06T12:41:08.337Z,15.15
2016-04-06T12:42:08.293Z,15.24
2016-04-06T12:43:08.248Z,15.07
2016-04-06T12:44:08.204Z,15.07
2016-04-06T12:45:08.129Z,15.15
2016-04-06T12:46:08.116Z,14.99
2016-04-06T12:47:08.040Z,14.99
2016-04-06T12:48:07.995Z,14.99
2016-04-06T12:49:07.952Z,15.06
2016-04-06T12:50:07.907Z,14.81
2016-04-06T12:51:07.847Z,14.85
2016-04-06T12:52:07.819Z,14.85
2016-04-06T12:53:07.760Z,14.5
2016-04-06T12:54:07.715Z,14.29
2016-04-06T12:55:07.655Z,14.66
2016-04-06T12:56:07.596Z,14.85